Katamy — KATAMY — position and weather

sailwx.info

Track history (hours):
 
Tides and Currents Weather Stations Pressure Air Temp Water Temp Dewpoint Dewpoint Depression Visibility Wind Speed Wind Dir Waves Ship Positions

Katamy

Last reported at 2017-Sep-24 01:49 UTC. Time now 2017-Sep-24 14:11 UTC.
Position N 34°24' W 119°41'.

Length 14 m.

Type: Pleasure craft. MMSI: 338140807.

Date/timePositionNaut miles runAvg speedWind from/ knotsBaromVisibWave heightAir tempDewpointWater temp
2017-Sep-24 01:49N 34°24' W 119°41'0 0.0
2017-Sep-23 23:52N 34°24' W 119°41'0 0.0
2017-Sep-23 23:07N 34°24' W 119°41'0 0.0
2017-Sep-23 22:52N 34°24' W 119°41'0 0.0
2017-Sep-23 22:01N 34°24' W 119°41'0 0.0
2017-Sep-23 21:31N 34°24' W 119°41'0 0.0
2017-Sep-23 20:46N 34°24' W 119°41'0 0.0
2017-Sep-23 20:19N 34°24' W 119°41'0 0.0
2017-Sep-23 19:40N 34°24' W 119°41'  
2017-Sep-14 17:44N 33°55' W 119°03'3 9.3
2017-Sep-14 17:24N 33°57' W 119°06'4 9.2
2017-Sep-14 17:00N 33°59' W 119°09'5 9.4
2017-Sep-14 16:30N 34°02' W 119°14'5 9.6
2017-Sep-14 15:59N 34°05' W 119°18'510.1
2017-Sep-14 15:29N 34°09' W 119°22'5 9.5
2017-Sep-14 15:00N 34°12' W 119°26'5 9.4
2017-Sep-14 14:28N 34°16' W 119°30'9 9.5
2017-Sep-14 13:29N 34°22' W 119°39'3 2.9
2017-Sep-14 12:23N 34°24' W 119°41'0 0.0
2017-Sep-14 10:47N 34°24' W 119°41'0 0.0
2017-Sep-14 10:26N 34°24' W 119°41'0 0.0
2017-Sep-14 09:56N 34°24' W 119°41'0 0.0
2017-Sep-14 09:14N 34°24' W 119°41'0 0.0
2017-Sep-14 08:08N 34°24' W 119°41'0 0.0
2017-Sep-14 07:41N 34°24' W 119°41'0 0.0
2017-Sep-14 07:29N 34°24' W 119°41'0 0.0
2017-Sep-14 06:56N 34°24' W 119°41'0 0.0
2017-Sep-14 06:23N 34°24' W 119°41'0 0.0
2017-Sep-14 05:44N 34°24' W 119°41'0 0.0
2017-Sep-14 05:20N 34°24' W 119°41'0 0.0
2017-Sep-14 04:47N 34°24' W 119°41'0 0.0
2017-Sep-14 02:56N 34°24' W 119°41'0 0.0
2017-Sep-14 02:29N 34°24' W 119°41'  
Track history (hours):
 
Tides and Currents Weather Stations Pressure Air Temp Water Temp Dewpoint Dewpoint Depression Visibility Wind Speed Wind Dir Waves Ship Positions

Katamy

Last reported at 2017-Sep-24 01:49 UTC. Time now 2017-Sep-24 14:11 UTC.
Position N 34°24' W 119°41'.

Length 14 m.

Type: Pleasure craft. MMSI: 338140807.

Date/timePositionNaut miles runAvg speedWind from/ knotsBaromVisibWave heightAir tempDewpointWater temp
2017-Sep-24 01:49N 34°24' W 119°41'0 0.0
2017-Sep-23 23:52N 34°24' W 119°41'0 0.0
2017-Sep-23 23:07N 34°24' W 119°41'0 0.0
2017-Sep-23 22:52N 34°24' W 119°41'0 0.0
2017-Sep-23 22:01N 34°24' W 119°41'0 0.0
2017-Sep-23 21:31N 34°24' W 119°41'0 0.0
2017-Sep-23 20:46N 34°24' W 119°41'0 0.0
2017-Sep-23 20:19N 34°24' W 119°41'0 0.0
2017-Sep-23 19:40N 34°24' W 119°41'  
2017-Sep-14 17:44N 33°55' W 119°03'3 9.3
2017-Sep-14 17:24N 33°57' W 119°06'4 9.2
2017-Sep-14 17:00N 33°59' W 119°09'5 9.4
2017-Sep-14 16:30N 34°02' W 119°14'5 9.6
2017-Sep-14 15:59N 34°05' W 119°18'510.1
2017-Sep-14 15:29N 34°09' W 119°22'5 9.5
2017-Sep-14 15:00N 34°12' W 119°26'5 9.4
2017-Sep-14 14:28N 34°16' W 119°30'9 9.5
2017-Sep-14 13:29N 34°22' W 119°39'3 2.9
2017-Sep-14 12:23N 34°24' W 119°41'0 0.0
2017-Sep-14 10:47N 34°24' W 119°41'0 0.0
2017-Sep-14 10:26N 34°24' W 119°41'0 0.0
2017-Sep-14 09:56N 34°24' W 119°41'0 0.0
2017-Sep-14 09:14N 34°24' W 119°41'0 0.0
2017-Sep-14 08:08N 34°24' W 119°41'0 0.0
2017-Sep-14 07:41N 34°24' W 119°41'0 0.0
2017-Sep-14 07:29N 34°24' W 119°41'0 0.0
2017-Sep-14 06:56N 34°24' W 119°41'0 0.0
2017-Sep-14 06:23N 34°24' W 119°41'0 0.0
2017-Sep-14 05:44N 34°24' W 119°41'0 0.0
2017-Sep-14 05:20N 34°24' W 119°41'0 0.0
2017-Sep-14 04:47N 34°24' W 119°41'0 0.0
2017-Sep-14 02:56N 34°24' W 119°41'0 0.0
2017-Sep-14 02:29N 34°24' W 119°41'  

Dump ship's entire track history